Nearby METAR Reports

 

EGNT - Newcastle, United Kingdom
Distance from station: NNE 1mi, 2km
Updated: 20/08/2018 03:20
Mostly cloudy
Mostly cloudy
 Wind from ESE
Wind: ESE 1 mph , 2 km/h
Temperature: 13°C
Dew Point: 13°C
Humidity: 100%
Barometer: 1018 hPa
Clouds: Mostly cloudy
Visibility: 6 miles , 10 km
Cloud details: Mostly cloudy 122 m
2018/08/20 02:20 EGNT 200220Z 11001KT 9999 BKN004 13/13 Q1018
EGQM - Boulmer, United Kingdom
Distance from station: N 29mi, 47km
Updated: 20/08/2018 02:50
Mostly cloudy
Mostly cloudy
 Wind from NNW
Wind: NNW 1 mph , 2 km/h
Temperature: 13°C
Dew Point: 13°C
Humidity: 100%
Barometer: 1018 hPa
Clouds: Mostly cloudy
Visibility: 6 miles , 10 km
Cloud details: Mostly cloudy 61 m
2018/08/20 01:50 EGQM 200150Z AUTO 34001KT 9999 BKN002/// 13/13 Q1018
 
EGOM - Spadeadam, United Kingdom
Distance from station: W 34mi, 54km
Updated: 20/08/2018 02:50
Mostly cloudy
Mostly cloudy
 Wind from WSW
Wind: WSW 5 mph , 7 km/h
Temperature: 11°C
Dew Point: 11°C
Humidity: 100%
Barometer: 1018 hPa
Clouds: Mostly cloudy
Visibility: 6 miles , 10 km
Cloud details: Mostly cloudy 1524 m
2018/08/20 01:50 EGOM 200150Z AUTO 25004KT 9999 BKN050/// 11/11 Q1018
EGNV - Tees-Side, United Kingdom
Distance from station: SSE 35mi, 57km
Updated: 19/08/2018 21:50
NOT Current
Mostly cloudy
Mostly cloudy
 Wind from ENE
Wind: ENE 8 mph , 13 km/h
Temperature: 15°C
Dew Point: 13°C
Humidity: 88%
Barometer: 1017 hPa
Clouds: Mostly cloudy
Visibility: 5 miles , 8 km
Cloud details: Few Clouds 335 m
Partly cloudy 396 m
Mostly cloudy 914 m
2018/08/19 20:50 EGNV 192050Z 07007KT 040V100 8000 FEW011 SCT013 BKN030 15/13 Q1017
 
EGNC - Carlisle, United Kingdom
Distance from station: W 45mi, 72km
Updated: 17/08/2018 17:50
NOT Current
Nearby showers, Mostly cloudy
Nearby showers, Mostly cloudy
 Wind from SW
Wind: SW 18 mph , 30 km/h
Temperature: 14°C
Dew Point: 13°C
Humidity: 94%
Barometer: 1012 hPa
Summary: Nearby Showers
Clouds: Mostly cloudy
Visibility: 5 miles , 8 km
Cloud details: Partly cloudy 244 m
Mostly cloudy 549 m
2018/08/17 16:50 EGNC 171650Z 23016KT 190V270 8000 VCSH SCT008 BKN018 14/13 Q1012
EGXE - Leeming Raf, United Kingdom
Distance from station: S 50mi, 81km
Updated: 20/08/2018 02:50
Mist, Overcast
Mist, Overcast
 Wind from SW
Wind: SW 2 mph , 4 km/h
Temperature: 15°C
Dew Point: 15°C
Humidity: 100%
Barometer: 1018 hPa
Summary: Mist
Clouds: Overcast
Visibility: 4 miles , 7 km
Cloud details: Overcast 1829 m
2018/08/20 01:50 EGXE 200150Z AUTO 23002KT 7000 BR OVC060/// 15/15 Q1018
 
EGXZ - Topcliffe Raf, United Kingdom
Distance from station: SSE 57mi, 91km
Updated: 20/08/2018 02:50
Mist, Overcast
Mist, Overcast
 Wind from ESE
Wind: ESE 2 mph , 4 km/h
Temperature: 15°C
Dew Point: 15°C
Humidity: 100%
Barometer: 1018 hPa
Summary: Mist
Clouds: Overcast
Visibility: 6 miles , 9 km
Cloud details: Overcast 2134 m
2018/08/20 01:50 EGXZ 200150Z AUTO 12002KT 9000 BR OVC070/// 15/15 Q1018
EGXU - Linton-On-Ouse R, United Kingdom
Distance from station: SSE 68mi, 110km
Updated: 20/08/2018 02:50
Mostly cloudy
Mostly cloudy
 Wind from W
Wind: W 7 mph , 11 km/h
Temperature: 16°C
Dew Point: 13°C
Humidity: 83%
Barometer: 1018 hPa
Clouds: Mostly cloudy
Visibility: 6 miles , 10 km
Cloud details: Mostly cloudy 2134 m
2018/08/20 01:50 EGXU 200150Z AUTO 28006KT 9999 // BKN070/// 16/13 Q1018
 
EGNM - Leeds And Bradfo, United Kingdom
Distance from station: S 78mi, 126km
Updated: 20/08/2018 03:20
Clear
Clear
 Wind from WSW
Wind: WSW 6 mph , 9 km/h
Temperature: 15°C
Dew Point: 13°C
Humidity: 88%
Barometer: 1019 hPa
Summary: Clear
Visibility: greater than 7 miles , 10 km
2018/08/20 02:20 EGNM 200220Z 25005KT CAVOK 15/13 Q1019
EGPH - Edinburgh Airpor, United Kingdom
Distance from station: NW 92mi, 148km
Updated: 20/08/2018 03:20
Overcast
Overcast
 Wind from WSW
Wind: WSW 6 mph , 9 km/h
Temperature: 12°C
Dew Point: 12°C
Humidity: 100%
Barometer: 1018 hPa
Clouds: Overcast
Visibility: 6 miles , 10 km
Cloud details: Overcast 244 m
2018/08/20 02:20 EGPH 200220Z 25005KT 9999 OVC008 12/12 Q1018
 
EGXV - Leconfield (aut), United Kingdom
Distance from station: SE 93mi, 150km
Updated: 20/08/2018 02:50
Mostly cloudy
Mostly cloudy
 Wind from WSW
Wind: WSW 3 mph , 6 km/h
Temperature: 17°C
Dew Point: 15°C
Humidity: 88%
Barometer: 1018 hPa
Clouds: Mostly cloudy
Visibility: 6 miles , 10 km
Cloud details: Few Clouds 335 m
Partly cloudy 427 m
Mostly cloudy 1402 m
2018/08/20 01:50 EGXV 200150Z AUTO 25003KT 9999 FEW011/// SCT014/// BKN046/// 17/15 Q1018
EGNO - Wharton, United Kingdom
Distance from station: SSW 99mi, 159km
Updated: 17/08/2018 18:20
NOT Current
Light rain, Mostly cloudy
Light rain, Mostly cloudy
 Wind from SW
Wind: SW 10 mph , 17 km/h
Temperature: 15°C
Dew Point: 14°C
Humidity: 94%
Barometer: 1016 hPa
Summary: Light rain
Clouds: Mostly cloudy
Visibility: 3 miles , 5 km
Cloud details: Few Clouds 122 m
Partly cloudy 213 m
Mostly cloudy 274 m
2018/08/17 17:20 EGNO 171720Z 23009KT 5000 -RA FEW004 SCT007 BKN009 15/14 Q1016
 
EGNH - Blackpool Airpor, United Kingdom
Distance from station: SSW 100mi, 161km
Updated: 19/08/2018 20:50
NOT Current
Partly cloudy
Partly cloudy
 Wind from W
Wind: W 8 mph , 13 km/h
Temperature: 17°C
Dew Point: 16°C
Humidity: 94%
Barometer: 1018 hPa
Clouds: Partly cloudy
Visibility: 6 miles , 10 km
Cloud details: Partly cloudy 1372 m
2018/08/19 19:50 EGNH 191950Z 28007KT 9999 SCT045 17/16 Q1018